Aeroporto :
LOGIN :

Iscrizione | Disclaimer

   EN    FR    IT 

 










Sommario :    VFR   VFR Marginale   IFR   IFR Intensivo   IFR Molto Intensivo
Visibilità : 
Base nubi : 
>= 8 km
>= 3000ft
5 / 8 km
1000 / 3000 ft
1500m / 5 km
500 / 1000 ft
800 / 1500m
200 / 500 ft
< 800m
< 200 ft
Simboli :   Temporali  Nebbia  Neve Forte  Precipitazioni Forti  Vento > 20 kt
SIGMETs :   Varie  Temporali  Ghiacco  Turbolenza  Onda orograficha  Ceneri Vulcaniche






- Altitudine del aeroporto : 63 ft
- Codice IATA : BZM


EHWO - Woensdrecht Airbase

ULTIMO METAR :
  • 200125Z AUTO 00000KT 2400 BR NCD M02/M02 Q1047 YLO

METARs OBSOLETI :
  • 200116Z AUTO 00000KT 1200 BR NCD M02/M02 Q1047 AMB
  • 200056Z AUTO 25001KT 0800 FZFG NCD M02/M02 Q1047 AMB
  • 200050Z AUTO 25001KT 3400 BR NCD M02/M03 Q1047 YLO
  • 200032Z AUTO 25001KT 0900 FZFG NCD M02/M02 Q1047 AMB
  • 200026Z AUTO 25001KT 1000 BR NCD M02/M02 Q1047 AMB
  • 200018Z AUTO 25001KT 0500 FZFG NCD M02/M02 Q1047 RED
  • 200005Z AUTO 24001KT 1100 BR NCD M02/M02 Q1047 AMB
  • 200001Z AUTO 24001KT 3200 BR NCD M02/M02 Q1047 YLO
  • 192355Z AUTO 24001KT 7000 BR NCD M01/M01 Q1047 WHT
  • 192329Z AUTO 00000KT 4300 BR NCD M01/M01 Q1047 GRN
  • 192325Z AUTO 01001KT 6000 BR NCD M01/M01 Q1047 WHT
  • 192308Z AUTO VRB01KT 6000 BR NCD M01/M02 Q1047 WHT
  • 192255Z AUTO 34001KT 5000 BR NCD M01/M02 Q1047 WHT
  • 192244Z AUTO VRB01KT 6000 BR NCD M01/M02 Q1047 WHT
  • 192225Z AUTO VRB02KT 7000 BR NCD M01/M01 Q1047 WHT

Previsioni scadute.



MetMap, La meteo Aeronautica in un colpo d'occhio ! - Copyright ORBIFLY Dicembre 2007 - Disclaimer

ORBIFLY MET'MAP TEAM :

Programmazione e sviluppo : Alexandra Zaïnal
Concezione : Baudouin d'Aumeries
Aiuto per la programmazione : Marc-Olivier Méhu
Supporto tecnico e logistico : Manuel Goepfert
Aiuto per la traduzione : Arnaldo La Scala

Contatto : metmap@orbifly.com




FONTI E CREDITI :

   NOAA